Time;durP1;ratioP1;P1;durP2;ratioP2;P2;SDS_P1;SDS_P2;PMS_P1;PMS_P2;Temp;Humidity;BMP_temperature;BMP_pressure;BME280_temperature;BME280_humidity;BME280_pressure;Samples;Min_cycle;Max_cycle;Signal;HPM_P1;HPM_P2
2023/12/02 00:01:56;;;;;;;26.50;16.33;;;;;;;;;;5092331;28;20195;-80
2023/12/02 00:04:23;;;;;;;23.87;15.47;;;;;;;;;;5091945;28;20226;-80
2023/12/02 00:06:50;;;;;;;25.93;15.87;;;;;;;;;;5092388;28;20194;-80
2023/12/02 00:09:18;;;;;;;24.83;16.37;;;;;;;;;;5092185;28;20198;-80
2023/12/02 00:11:50;;;;;;;26.33;18.10;;;;;;;;;;5092249;28;20291;-80
2023/12/02 00:14:17;;;;;;;28.57;18.10;;;;;;;;;;5092204;28;20278;-81
2023/12/02 00:16:44;;;;;;;28.43;18.47;;;;;;;;;;5092238;28;20227;-81
2023/12/02 00:19:11;;;;;;;24.80;18.27;;;;;;;;;;5092021;28;20347;-80
2023/12/02 00:21:38;;;;;;;26.17;17.03;;;;;;;;;;5091897;28;20290;-81
2023/12/02 00:24:06;;;;;;;25.37;15.93;;;;;;;;;;5091813;28;20282;-80
2023/12/02 00:26:33;;;;;;;19.63;14.37;;;;;;;;;;5092345;28;20205;-80
2023/12/02 00:29:02;;;;;;;35.90;20.40;;;;;;;;;;5092016;28;20222;-81
2023/12/02 00:31:29;;;;;;;27.97;16.60;;;;;;;;;;5091806;28;20241;-81
2023/12/02 00:33:57;;;;;;;27.03;16.70;;;;;;;;;;5091228;28;20288;-80
2023/12/02 00:36:24;;;;;;;26.40;16.70;;;;;;;;;;5091688;28;20284;-80
2023/12/02 00:38:51;;;;;;;27.20;17.17;;;;;;;;;;5091536;28;20229;-80
2023/12/02 00:41:18;;;;;;;28.07;19.17;;;;;;;;;;5091748;28;20294;-80
2023/12/02 00:43:45;;;;;;;30.53;19.83;;;;;;;;;;5091001;28;20238;-80
2023/12/02 00:46:14;;;;;;;38.43;23.57;;;;;;;;;;5091713;28;20204;-81
2023/12/02 00:48:41;;;;;;;32.57;21.97;;;;;;;;;;5091037;28;20805;-80
2023/12/02 00:51:09;;;;;;;28.33;18.20;;;;;;;;;;5091486;28;20577;-80
2023/12/02 00:53:36;;;;;;;27.37;16.67;;;;;;;;;;5091852;28;20440;-80
2023/12/02 00:56:03;;;;;;;20.73;14.73;;;;;;;;;;5091638;28;20286;-80
2023/12/02 00:58:31;;;;;;;20.90;15.27;;;;;;;;;;5091427;28;20252;-81
2023/12/02 01:00:58;;;;;;;22.93;15.20;;;;;;;;;;5091283;28;20329;-80
2023/12/02 01:03:26;;;;;;;27.27;16.67;;;;;;;;;;5091337;28;20205;-80
2023/12/02 01:05:54;;;;;;;22.73;15.67;;;;;;;;;;5091075;28;20293;-81
2023/12/02 01:08:21;;;;;;;21.37;14.60;;;;;;;;;;5091413;28;20208;-81
2023/12/02 01:10:48;;;;;;;23.80;15.17;;;;;;;;;;5091100;28;20289;-80
2023/12/02 01:13:15;;;;;;;21.17;16.00;;;;;;;;;;5090771;28;20248;-81
2023/12/02 01:15:42;;;;;;;21.80;15.30;;;;;;;;;;5091501;28;20295;-80
2023/12/02 01:18:09;;;;;;;20.37;14.47;;;;;;;;;;5090774;28;20745;-81
2023/12/02 01:20:38;;;;;;;20.43;14.20;;;;;;;;;;5090731;28;20722;-80
2023/12/02 01:23:05;;;;;;;20.27;13.40;;;;;;;;;;5091287;28;20201;-79
2023/12/02 01:25:32;;;;;;;17.97;13.37;;;;;;;;;;5091353;28;20293;-80
2023/12/02 01:28:00;;;;;;;19.63;13.83;;;;;;;;;;5091501;28;20278;-80
2023/12/02 01:30:27;;;;;;;20.63;13.37;;;;;;;;;;5090713;28;20305;-80
2023/12/02 01:32:54;;;;;;;19.47;12.90;;;;;;;;;;5090944;28;20562;-81
2023/12/02 01:35:21;;;;;;;16.67;12.60;;;;;;;;;;5091439;28;20207;-80
2023/12/02 01:37:50;;;;;;;18.23;12.77;;;;;;;;;;5090857;28;20190;-80
2023/12/02 01:40:17;;;;;;;21.53;13.13;;;;;;;;;;5091049;28;20226;-80
2023/12/02 01:42:44;;;;;;;18.97;13.37;;;;;;;;;;5091413;28;20289;-81
2023/12/02 01:45:12;;;;;;;19.53;13.47;;;;;;;;;;5090684;28;20194;-80
2023/12/02 01:47:39;;;;;;;18.87;12.80;;;;;;;;;;5090579;28;20229;-81
2023/12/02 01:50:08;;;;;;;22.00;14.47;;;;;;;;;;5090800;28;20291;-80
2023/12/02 01:52:35;;;;;;;21.23;14.33;;;;;;;;;;5090822;28;20198;-80
2023/12/02 01:55:04;;;;;;;19.17;13.73;;;;;;;;;;5091442;28;20236;-81
2023/12/02 01:57:32;;;;;;;17.20;12.87;;;;;;;;;;5094529;28;20694;-81
2023/12/02 01:59:59;;;;;;;20.57;13.40;;;;;;;;;;5094167;28;20687;-81
2023/12/02 02:02:26;;;;;;;18.93;13.27;;;;;;;;;;5094737;28;20752;-81
2023/12/02 02:04:53;;;;;;;17.00;11.70;;;;;;;;;;5094717;28;20248;-80
2023/12/02 02:07:21;;;;;;;16.43;11.73;;;;;;;;;;5094603;28;20288;-80
2023/12/02 02:09:49;;;;;;;16.40;11.63;;;;;;;;;;5094168;28;20714;-80
2023/12/02 02:12:17;;;;;;;16.80;12.03;;;;;;;;;;5086187;28;20290;-79
2023/12/02 02:14:45;;;;;;;16.30;11.47;;;;;;;;;;5074005;28;20257;-80
2023/12/02 02:17:12;;;;;;;17.03;12.03;;;;;;;;;;5074058;28;20291;-80
2023/12/02 02:19:39;;;;;;;16.67;11.97;;;;;;;;;;5073654;28;20234;-80
2023/12/02 02:22:08;;;;;;;25.97;14.30;;;;;;;;;;5074098;28;20286;-80
2023/12/02 02:24:35;;;;;;;23.60;13.23;;;;;;;;;;5073847;28;20320;-81
2023/12/02 02:27:03;;;;;;;18.07;12.20;;;;;;;;;;5074312;28;20191;-80
2023/12/02 02:29:32;;;;;;;17.83;12.30;;;;;;;;;;5073321;28;20297;-80
2023/12/02 02:31:59;;;;;;;21.30;12.33;;;;;;;;;;5073545;28;20238;-80
2023/12/02 02:34:27;;;;;;;20.67;13.50;;;;;;;;;;5075006;28;20290;-80
2023/12/02 02:36:55;;;;;;;21.23;13.20;;;;;;;;;;5093675;28;20209;-81
2023/12/02 02:39:23;;;;;;;22.40;13.13;;;;;;;;;;5094412;28;20218;-81
2023/12/02 02:41:51;;;;;;;20.60;13.03;;;;;;;;;;5093642;28;20281;-80
2023/12/02 02:44:18;;;;;;;23.60;13.57;;;;;;;;;;5093835;28;20277;-81
2023/12/02 02:46:45;;;;;;;19.20;12.00;;;;;;;;;;5093560;28;20231;-80
2023/12/02 02:49:12;;;;;;;20.00;12.73;;;;;;;;;;5093670;28;20230;-80
2023/12/02 02:51:39;;;;;;;21.30;13.10;;;;;;;;;;5093527;28;20233;-81
2023/12/02 02:54:06;;;;;;;21.93;13.27;;;;;;;;;;5093726;28;20198;-81
2023/12/02 02:56:35;;;;;;;20.83;12.80;;;;;;;;;;5093416;28;20219;-80
2023/12/02 02:59:03;;;;;;;22.03;14.23;;;;;;;;;;5093212;28;20213;-79
2023/12/02 03:01:30;;;;;;;21.77;13.93;;;;;;;;;;5093267;28;20794;-80
2023/12/02 03:03:57;;;;;;;22.37;13.90;;;;;;;;;;5093065;28;20746;-79
2023/12/02 03:06:26;;;;;;;22.97;14.60;;;;;;;;;;5092906;28;20201;-80
2023/12/02 03:08:53;;;;;;;23.43;12.77;;;;;;;;;;5093157;28;20277;-80
2023/12/02 03:11:20;;;;;;;23.47;13.03;;;;;;;;;;5093338;28;20225;-80
2023/12/02 03:13:49;;;;;;;22.20;13.27;;;;;;;;;;5092715;28;20296;-81
2023/12/02 03:16:16;;;;;;;24.00;13.97;;;;;;;;;;5093015;28;20224;-80
2023/12/02 03:18:43;;;;;;;23.97;13.90;;;;;;;;;;5093181;28;20197;-80
2023/12/02 03:21:10;;;;;;;25.33;13.47;;;;;;;;;;5092604;28;20230;-80
2023/12/02 03:23:38;;;;;;;23.67;14.27;;;;;;;;;;5092698;28;20279;-81
2023/12/02 03:26:05;;;;;;;24.77;14.23;;;;;;;;;;5093145;28;20305;-79
2023/12/02 03:28:32;;;;;;;25.57;14.60;;;;;;;;;;5092771;28;20292;-80
2023/12/02 03:31:01;;;;;;;25.27;15.10;;;;;;;;;;5092579;28;20285;-81
2023/12/02 03:33:28;;;;;;;27.70;15.00;;;;;;;;;;5092703;28;20198;-81
2023/12/02 03:35:55;;;;;;;26.60;14.13;;;;;;;;;;5092574;28;20288;-80
2023/12/02 03:38:22;;;;;;;24.43;14.17;;;;;;;;;;5092855;28;20700;-80
2023/12/02 03:40:50;;;;;;;28.03;14.07;;;;;;;;;;5092525;28;20784;-80
2023/12/02 03:43:17;;;;;;;24.30;13.50;;;;;;;;;;5084413;28;20308;-79
2023/12/02 03:45:44;;;;;;;26.00;15.03;;;;;;;;;;5073852;28;20259;-80
2023/12/02 03:48:12;;;;;;;28.00;15.03;;;;;;;;;;5072754;28;20226;-81
2023/12/02 03:50:40;;;;;;;29.00;16.07;;;;;;;;;;5072286;28;20277;-80
2023/12/02 03:53:07;;;;;;;32.33;16.50;;;;;;;;;;5072150;28;20298;-80
2023/12/02 03:55:34;;;;;;;29.33;15.80;;;;;;;;;;5071800;28;20237;-80
2023/12/02 03:58:01;;;;;;;29.03;15.60;;;;;;;;;;5072110;28;20293;-80
2023/12/02 04:00:28;;;;;;;29.40;15.83;;;;;;;;;;5071480;28;20330;-80
2023/12/02 04:02:56;;;;;;;31.37;15.07;;;;;;;;;;5071481;28;20212;-80
2023/12/02 04:05:25;;;;;;;29.83;15.83;;;;;;;;;;5072382;28;20202;-80
2023/12/02 04:07:53;;;;;;;37.67;16.53;;;;;;;;;;5071759;28;20210;-79
2023/12/02 04:10:20;;;;;;;32.67;16.37;;;;;;;;;;5071216;28;20240;-80
2023/12/02 04:12:47;;;;;;;27.53;14.83;;;;;;;;;;5072369;28;20212;-80
2023/12/02 04:15:15;;;;;;;30.73;15.67;;;;;;;;;;5071931;28;20293;-80
2023/12/02 04:17:42;;;;;;;30.33;15.50;;;;;;;;;;5070873;28;20202;-80
2023/12/02 04:20:15;;;;;;;30.10;16.00;;;;;;;;;;5071762;28;20225;-81
2023/12/02 04:22:43;;;;;;;30.07;16.70;;;;;;;;;;5071599;28;20205;-81
2023/12/02 04:25:10;;;;;;;32.27;16.77;;;;;;;;;;5070824;28;20198;-80
2023/12/02 04:27:38;;;;;;;33.67;16.57;;;;;;;;;;5072022;28;20296;-81
2023/12/02 04:30:05;;;;;;;32.43;16.77;;;;;;;;;;5071654;28;20205;-80
2023/12/02 04:32:33;;;;;;;30.70;15.87;;;;;;;;;;5071188;28;20659;-80
2023/12/02 04:35:00;;;;;;;32.27;16.80;;;;;;;;;;5077487;28;20201;-81
2023/12/02 04:37:27;;;;;;;38.07;18.20;;;;;;;;;;5091647;28;20247;-81
2023/12/02 04:39:56;;;;;;;37.40;18.30;;;;;;;;;;5091126;28;20230;-80
2023/12/02 04:42:23;;;;;;;38.23;19.10;;;;;;;;;;5091393;28;20288;-80
2023/12/02 04:44:51;;;;;;;39.30;18.57;;;;;;;;;;5091375;28;20262;-80
2023/12/02 04:47:21;;;;;;;39.13;18.87;;;;;;;;;;5091585;28;20288;-80
2023/12/02 04:49:48;;;;;;;36.73;17.73;;;;;;;;;;5091135;28;20280;-80
2023/12/02 04:52:15;;;;;;;40.40;18.57;;;;;;;;;;5091450;28;20239;-80
2023/12/02 04:54:42;;;;;;;39.70;19.57;;;;;;;;;;5090864;28;20202;-80
2023/12/02 04:57:11;;;;;;;43.03;19.23;;;;;;;;;;5091411;28;20197;-80
2023/12/02 04:59:38;;;;;;;35.07;17.17;;;;;;;;;;5091193;28;20200;-80
2023/12/02 05:02:05;;;;;;;33.03;17.10;;;;;;;;;;5091437;28;20260;-80
2023/12/02 05:04:32;;;;;;;35.67;17.30;;;;;;;;;;5091721;28;20222;-81
2023/12/02 05:07:00;;;;;;;35.53;16.67;;;;;;;;;;5091253;28;20692;-80
2023/12/02 05:09:27;;;;;;;35.17;16.93;;;;;;;;;;5089465;28;20189;-80
2023/12/02 05:11:54;;;;;;;37.73;18.83;;;;;;;;;;5081610;28;20308;-80
2023/12/02 05:14:22;;;;;;;39.33;17.70;;;;;;;;;;5070833;28;20289;-79
2023/12/02 05:16:50;;;;;;;37.70;17.93;;;;;;;;;;5091550;28;20202;-81
2023/12/02 05:19:17;;;;;;;36.10;18.57;;;;;;;;;;5091115;28;20281;-81
2023/12/02 05:21:44;;;;;;;41.73;18.37;;;;;;;;;;5071869;28;20435;-80
2023/12/02 05:24:11;;;;;;;37.10;18.47;;;;;;;;;;5070517;28;20648;-80
2023/12/02 05:26:39;;;;;;;41.53;18.03;;;;;;;;;;5070909;28;20229;-80
2023/12/02 05:29:06;;;;;;;37.70;17.53;;;;;;;;;;5071908;28;20192;-80
2023/12/02 05:31:35;;;;;;;37.83;17.57;;;;;;;;;;5075034;28;20201;-80
2023/12/02 05:34:02;;;;;;;43.23;18.63;;;;;;;;;;5074967;28;20195;-80
2023/12/02 05:36:30;;;;;;;36.80;17.53;;;;;;;;;;5093479;28;20283;-81
2023/12/02 05:38:58;;;;;;;39.73;18.03;;;;;;;;;;5095044;28;20203;-80
2023/12/02 05:41:25;;;;;;;41.77;18.13;;;;;;;;;;5094617;28;20317;-80
2023/12/02 05:43:52;;;;;;;39.17;18.93;;;;;;;;;;5095008;28;20282;-79
2023/12/02 05:46:19;;;;;;;40.13;18.90;;;;;;;;;;5094790;28;20281;-79
2023/12/02 05:48:48;;;;;;;39.70;18.40;;;;;;;;;;5095086;28;20194;-80
2023/12/02 05:51:15;;;;;;;40.00;18.73;;;;;;;;;;5094606;28;20744;-80
2023/12/02 05:53:42;;;;;;;38.10;18.43;;;;;;;;;;5094685;28;20240;-79
2023/12/02 05:56:10;;;;;;;37.93;18.07;;;;;;;;;;5094358;28;20237;-80
2023/12/02 05:58:37;;;;;;;38.90;17.30;;;;;;;;;;5094644;28;20280;-80
2023/12/02 06:01:04;;;;;;;41.57;18.43;;;;;;;;;;5094130;28;20690;-80
2023/12/02 06:03:31;;;;;;;40.00;18.33;;;;;;;;;;5094487;28;20282;-80
2023/12/02 06:06:01;;;;;;;38.90;18.07;;;;;;;;;;5094065;28;20674;-79
2023/12/02 06:08:28;;;;;;;39.80;18.20;;;;;;;;;;5094168;28;20205;-79
2023/12/02 06:10:55;;;;;;;41.97;17.97;;;;;;;;;;5094307;28;20281;-79
2023/12/02 06:13:23;;;;;;;37.27;18.47;;;;;;;;;;5094225;28;20670;-80
2023/12/02 06:15:50;;;;;;;41.70;19.50;;;;;;;;;;5094509;28;20737;-79
2023/12/02 06:18:18;;;;;;;42.03;19.60;;;;;;;;;;5094481;28;20605;-80
2023/12/02 06:20:45;;;;;;;46.03;19.93;;;;;;;;;;5093972;28;20685;-80
2023/12/02 06:23:13;;;;;;;41.43;19.00;;;;;;;;;;5094382;28;20802;-79
2023/12/02 06:25:40;;;;;;;42.37;19.10;;;;;;;;;;5094142;28;20218;-80
2023/12/02 06:28:08;;;;;;;41.33;19.60;;;;;;;;;;5094357;28;20281;-80
2023/12/02 06:30:35;;;;;;;44.33;20.53;;;;;;;;;;5094102;28;21281;-80
2023/12/02 06:33:02;;;;;;;47.60;20.23;;;;;;;;;;5094117;28;20225;-80
2023/12/02 06:35:29;;;;;;;43.53;19.20;;;;;;;;;;5093644;28;20198;-80
2023/12/02 06:37:56;;;;;;;51.07;21.20;;;;;;;;;;5094370;28;20191;-80
2023/12/02 06:40:25;;;;;;;42.50;19.67;;;;;;;;;;5093527;28;20205;-78
2023/12/02 06:42:53;;;;;;;40.73;18.23;;;;;;;;;;5093961;28;20224;-79
2023/12/02 06:45:20;;;;;;;44.50;19.87;;;;;;;;;;5093793;28;20281;-79
2023/12/02 06:47:47;;;;;;;46.33;19.57;;;;;;;;;;5094057;28;20223;-79
2023/12/02 06:50:14;;;;;;;42.63;19.40;;;;;;;;;;5093497;28;20287;-80
2023/12/02 06:52:41;;;;;;;43.57;19.43;;;;;;;;;;5093814;28;20221;-80
2023/12/02 06:55:09;;;;;;;43.73;19.77;;;;;;;;;;5093687;28;20233;-80
2023/12/02 06:57:38;;;;;;;44.17;19.57;;;;;;;;;;5093698;28;20216;-79
2023/12/02 07:00:06;;;;;;;45.50;19.77;;;;;;;;;;5093762;28;20312;-80
2023/12/02 07:02:35;;;;;;;40.93;19.47;;;;;;;;;;5093402;28;20317;-80
2023/12/02 07:05:03;;;;;;;44.67;20.30;;;;;;;;;;5093434;28;20305;-80
2023/12/02 07:07:31;;;;;;;46.23;20.23;;;;;;;;;;5093310;28;20226;-80
2023/12/02 07:09:58;;;;;;;40.97;19.67;;;;;;;;;;5093158;28;20199;-79
2023/12/02 07:12:25;;;;;;;43.20;19.63;;;;;;;;;;5093230;28;20273;-79
2023/12/02 07:14:54;;;;;;;40.00;19.40;;;;;;;;;;5093491;28;20287;-80
2023/12/02 07:17:21;;;;;;;44.30;20.17;;;;;;;;;;5093039;28;20229;-80
2023/12/02 07:19:49;;;;;;;44.33;20.60;;;;;;;;;;5092631;28;20229;-79
2023/12/02 07:22:16;;;;;;;43.47;20.80;;;;;;;;;;5093073;28;20233;-79
2023/12/02 07:24:43;;;;;;;43.97;19.90;;;;;;;;;;5093219;28;20625;-80
2023/12/02 07:27:10;;;;;;;42.70;19.50;;;;;;;;;;5092958;28;20651;-80
2023/12/02 07:29:38;;;;;;;43.73;19.53;;;;;;;;;;5092718;28;20555;-80
2023/12/02 07:32:07;;;;;;;43.10;19.93;;;;;;;;;;5093128;28;20233;-79
2023/12/02 07:34:34;;;;;;;42.90;20.20;;;;;;;;;;5092746;28;20285;-80
2023/12/02 07:37:01;;;;;;;47.37;20.83;;;;;;;;;;5092659;28;20600;-79
2023/12/02 07:39:28;;;;;;;45.80;22.50;;;;;;;;;;5092440;28;20204;-80
2023/12/02 07:41:56;;;;;;;48.50;22.03;;;;;;;;;;5092988;28;20229;-80
2023/12/02 07:44:23;;;;;;;47.97;21.93;;;;;;;;;;5092551;28;20697;-79
2023/12/02 07:46:50;;;;;;;55.57;27.50;;;;;;;;;;5092453;28;20364;-80
2023/12/02 07:49:18;;;;;;;51.07;26.13;;;;;;;;;;5091988;28;20622;-79
2023/12/02 07:51:46;;;;;;;44.43;22.20;;;;;;;;;;5092391;28;20232;-79
2023/12/02 07:54:13;;;;;;;43.90;20.17;;;;;;;;;;5092024;28;20284;-80
2023/12/02 07:56:40;;;;;;;42.10;19.37;;;;;;;;;;5092494;28;20760;-79
2023/12/02 07:59:07;;;;;;;37.53;18.83;;;;;;;;;;5092391;28;20277;-79
2023/12/02 08:01:34;;;;;;;40.13;20.13;;;;;;;;;;5091918;28;20323;-80
2023/12/02 08:04:01;;;;;;;44.90;19.43;;;;;;;;;;5092218;28;20277;-80
2023/12/02 08:06:30;;;;;;;43.70;19.57;;;;;;;;;;5091928;28;20739;-80
2023/12/02 08:08:58;;;;;;;39.87;19.23;;;;;;;;;;5092483;28;20685;-80
2023/12/02 08:11:26;;;;;;;42.93;22.00;;;;;;;;;;5092030;28;20236;-79
2023/12/02 08:13:54;;;;;;;49.13;27.53;;;;;;;;;;5092349;28;20197;-80
2023/12/02 08:16:21;;;;;;;47.63;25.57;;;;;;;;;;5089107;28;20288;-78
2023/12/02 08:18:48;;;;;;;51.93;27.03;;;;;;;;;;5091838;28;20304;-80
2023/12/02 08:21:15;;;;;;;42.17;22.30;;;;;;;;;;5090950;28;20254;-80
2023/12/02 08:23:43;;;;;;;41.50;23.37;;;;;;;;;;5091664;28;20296;-80
2023/12/02 08:26:11;;;;;;;41.90;23.30;;;;;;;;;;5092208;28;20297;-79
2023/12/02 08:28:38;;;;;;;43.90;27.23;;;;;;;;;;5091991;28;20293;-79
2023/12/02 08:31:05;;;;;;;46.47;27.30;;;;;;;;;;5091568;28;20219;-79
2023/12/02 08:33:32;;;;;;;42.77;25.53;;;;;;;;;;5076871;28;20298;-79
2023/12/02 08:36:00;;;;;;;39.87;23.83;;;;;;;;;;5079720;28;20576;-78
2023/12/02 08:38:27;;;;;;;37.20;21.73;;;;;;;;;;5085555;28;20208;-79
2023/12/02 08:40:55;;;;;;;33.07;20.30;;;;;;;;;;5085843;28;20230;-77
2023/12/02 08:43:23;;;;;;;35.90;21.67;;;;;;;;;;5078426;28;20689;-79
2023/12/02 08:45:50;;;;;;;32.10;21.07;;;;;;;;;;5088397;28;20281;-78
2023/12/02 08:48:17;;;;;;;34.87;22.47;;;;;;;;;;5091556;28;20221;-77
2023/12/02 08:50:44;;;;;;;33.13;22.03;;;;;;;;;;5091827;28;20194;-76
2023/12/02 08:53:11;;;;;;;30.83;22.03;;;;;;;;;;5091703;28;20566;-78
2023/12/02 08:55:39;;;;;;;33.70;20.70;;;;;;;;;;5091332;28;20654;-77
2023/12/02 08:58:07;;;;;;;37.23;24.70;;;;;;;;;;5071525;28;20230;-77
2023/12/02 09:00:34;;;;;;;30.87;20.03;;;;;;;;;;5071033;28;20853;-77
2023/12/02 09:03:02;;;;;;;28.67;19.60;;;;;;;;;;5070511;28;20311;-78
2023/12/02 09:05:30;;;;;;;27.20;18.83;;;;;;;;;;5070330;28;20195;-78
2023/12/02 09:07:59;;;;;;;26.83;17.50;;;;;;;;;;5070966;28;20245;-78
2023/12/02 09:10:27;;;;;;;26.27;17.77;;;;;;;;;;5071152;28;20252;-77
2023/12/02 09:12:55;;;;;;;27.97;18.83;;;;;;;;;;5070885;28;20199;-77
2023/12/02 09:15:46;;;;;;;29.23;21.83;;;;;;;;;;5071009;28;20226;-79
2023/12/02 09:18:15;;;;;;;26.90;18.67;;;;;;;;;;5062969;28;20281;-79
2023/12/02 09:20:44;;;;;;;27.53;17.70;;;;;;;;;;5091144;28;20292;-78
2023/12/02 09:23:11;;;;;;;26.97;18.60;;;;;;;;;;5069761;28;20330;-77
2023/12/02 09:25:39;;;;;;;29.03;18.33;;;;;;;;;;4733701;28;10000050;-78
2023/12/02 09:28:17;;;;;;;24.63;17.20;;;;;;;;;;5087769;28;20202;-79
2023/12/02 09:30:51;;;;;;;26.43;17.30;;;;;;;;;;5088024;28;20288;-76
2023/12/02 09:33:20;;;;;;;28.00;18.60;;;;;;;;;;5087560;28;20726;-78
2023/12/02 09:35:49;;;;;;;30.40;18.77;;;;;;;;;;5086914;28;20198;-78
2023/12/02 09:38:16;;;;;;;28.43;19.17;;;;;;;;;;5088016;28;20195;-78
2023/12/02 09:40:56;;;;;;;26.97;17.07;;;;;;;;;;5088586;28;20572;-77
2023/12/02 09:43:27;;;;;;;30.70;19.03;;;;;;;;;;5088323;28;20253;-78
2023/12/02 09:46:09;;;;;;;28.63;18.80;;;;;;;;;;5087722;28;20305;-76
2023/12/02 09:48:41;;;;;;;28.07;17.13;;;;;;;;;;5085115;28;20194;-76
2023/12/02 09:51:13;;;;;;;26.90;17.07;;;;;;;;;;5091140;28;20803;-76
2023/12/02 09:53:45;;;;;;;27.67;16.90;;;;;;;;;;5091044;28;20244;-76
2023/12/02 09:56:16;;;;;;;28.30;18.43;;;;;;;;;;5090870;28;20555;-76
2023/12/02 09:58:44;;;;;;;27.00;17.43;;;;;;;;;;5088963;28;20205;-77
2023/12/02 10:01:19;;;;;;;28.53;17.50;;;;;;;;;;5089131;28;21018;-76
2023/12/02 10:03:56;;;;;;;27.40;16.77;;;;;;;;;;5088516;28;20265;-75
2023/12/02 10:06:32;;;;;;;27.17;17.07;;;;;;;;;;5088695;28;20286;-77
2023/12/02 10:09:02;;;;;;;26.97;17.10;;;;;;;;;;5089891;28;20765;-77
2023/12/02 10:11:35;;;;;;;25.20;16.73;;;;;;;;;;5089485;28;20693;-78
2023/12/02 10:14:10;;;;;;;28.23;17.80;;;;;;;;;;5089213;28;20679;-77
2023/12/02 10:16:38;;;;;;;27.73;17.33;;;;;;;;;;5091289;28;20277;-76
2023/12/02 10:19:12;;;;;;;27.03;16.87;;;;;;;;;;5092988;28;20278;-78
2023/12/02 10:21:43;;;;;;;27.00;17.37;;;;;;;;;;5093035;28;20222;-77
2023/12/02 10:24:11;;;;;;;27.80;16.23;;;;;;;;;;5094288;28;20290;-78
2023/12/02 10:26:42;;;;;;;24.67;16.00;;;;;;;;;;5093167;28;20747;-78
2023/12/02 10:29:13;;;;;;;26.30;17.17;;;;;;;;;;5093719;28;20663;-78
2023/12/02 10:31:45;;;;;;;28.00;15.87;;;;;;;;;;5093069;28;20202;-78
2023/12/02 10:34:20;;;;;;;26.43;16.20;;;;;;;;;;5084809;28;20639;-77
2023/12/02 10:36:49;;;;;;;25.30;16.73;;;;;;;;;;5087059;28;20289;-77
2023/12/02 10:39:17;;;;;;;24.33;16.43;;;;;;;;;;5081610;28;20198;-78
2023/12/02 10:41:48;;;;;;;25.30;16.10;;;;;;;;;;5072582;28;20323;-77
2023/12/02 10:44:17;;;;;;;27.37;17.33;;;;;;;;;;5083422;28;20561;-77
2023/12/02 10:46:44;;;;;;;26.00;16.40;;;;;;;;;;5086850;28;20195;-78
2023/12/02 10:49:12;;;;;;;27.10;17.37;;;;;;;;;;5090918;28;20554;-79
2023/12/02 10:51:42;;;;;;;27.13;17.50;;;;;;;;;;5091157;28;20187;-78
2023/12/02 10:54:10;;;;;;;21.50;15.93;;;;;;;;;;5093656;28;20257;-77
2023/12/02 10:56:38;;;;;;;26.43;18.07;;;;;;;;;;5092824;28;20742;-78
2023/12/02 10:59:07;;;;;;;25.90;17.03;;;;;;;;;;5093579;28;20222;-78
2023/12/02 11:01:38;;;;;;;26.90;17.67;;;;;;;;;;5093540;28;20611;-78
2023/12/02 11:04:11;;;;;;;28.73;19.63;;;;;;;;;;5076518;28;20706;-78
2023/12/02 11:06:39;;;;;;;30.03;19.00;;;;;;;;;;5074439;28;20226;-78
2023/12/02 11:09:11;;;;;;;27.57;18.73;;;;;;;;;;5088359;28;20306;-77
2023/12/02 11:11:44;;;;;;;27.73;19.17;;;;;;;;;;5085395;28;20235;-78
2023/12/02 11:14:16;;;;;;;27.77;19.37;;;;;;;;;;5080979;28;20199;-78
2023/12/02 11:16:46;;;;;;;27.77;18.13;;;;;;;;;;5083299;28;20223;-79
2023/12/02 11:19:20;;;;;;;25.37;18.30;;;;;;;;;;5086780;28;20285;-79
2023/12/02 11:21:55;;;;;;;25.77;17.97;;;;;;;;;;5093001;28;20236;-78
2023/12/02 11:24:29;;;;;;;27.23;18.53;;;;;;;;;;5092490;28;20704;-77
2023/12/02 11:27:04;;;;;;;26.93;18.37;;;;;;;;;;5092175;28;20246;-79
2023/12/02 11:29:35;;;;;;;30.27;18.97;;;;;;;;;;5092241;28;20273;-79
2023/12/02 11:32:16;;;;;;;29.00;19.27;;;;;;;;;;5093293;28;20194;-78
2023/12/02 11:34:50;;;;;;;26.70;19.43;;;;;;;;;;5091496;28;20640;-78
2023/12/02 11:37:24;;;;;;;35.47;27.97;;;;;;;;;;5092932;28;20582;-77
2023/12/02 11:39:57;;;;;;;47.10;35.70;;;;;;;;;;5092534;28;20203;-77
2023/12/02 11:42:27;;;;;;;33.60;21.27;;;;;;;;;;5090959;28;20220;-77
2023/12/02 11:45:06;;;;;;;31.87;21.60;;;;;;;;;;5088880;28;20206;-77
2023/12/02 11:47:37;;;;;;;31.70;20.97;;;;;;;;;;4736916;28;10000310;-77
2023/12/02 11:50:13;;;;;;;30.27;19.23;;;;;;;;;;5088750;28;20801;-77
2023/12/02 11:52:47;;;;;;;34.37;23.50;;;;;;;;;;5088317;28;20640;-78
2023/12/02 11:55:17;;;;;;;33.57;24.87;;;;;;;;;;5089505;28;20207;-78
2023/12/02 11:57:51;;;;;;;28.30;18.40;;;;;;;;;;5086748;28;20301;-79
2023/12/02 12:00:22;;;;;;;26.67;18.57;;;;;;;;;;5089026;28;20366;-80
2023/12/02 12:03:11;;;;;;;29.77;19.80;;;;;;;;;;5092831;28;20230;-81
2023/12/02 12:05:42;;;;;;;30.23;19.00;;;;;;;;;;5091513;28;20609;-79
2023/12/02 12:08:13;;;;;;;26.87;18.47;;;;;;;;;;5091659;28;20257;-80
2023/12/02 12:10:42;;;;;;;27.27;18.70;;;;;;;;;;5092218;28;20201;-80
2023/12/02 12:13:11;;;;;;;26.97;17.83;;;;;;;;;;5091815;28;20194;-78
2023/12/02 12:15:39;;;;;;;27.47;17.50;;;;;;;;;;5091288;28;20244;-78
2023/12/02 12:18:06;;;;;;;24.97;16.80;;;;;;;;;;5091378;28;20584;-78
2023/12/02 12:20:33;;;;;;;23.97;16.40;;;;;;;;;;5089589;28;20285;-79
2023/12/02 12:23:00;;;;;;;22.77;15.73;;;;;;;;;;5091476;28;20655;-79
2023/12/02 12:25:29;;;;;;;23.60;15.53;;;;;;;;;;5092075;28;20567;-79
2023/12/02 12:28:03;;;;;;;22.53;15.13;;;;;;;;;;5091480;28;20381;-78
2023/12/02 12:30:43;;;;;;;21.03;14.33;;;;;;;;;;5092097;28;20198;-79
2023/12/02 12:33:11;;;;;;;22.20;14.97;;;;;;;;;;5092234;28;20293;-78
2023/12/02 12:35:39;;;;;;;20.67;14.47;;;;;;;;;;5091679;28;20225;-79
2023/12/02 12:38:08;;;;;;;19.67;13.60;;;;;;;;;;5091483;28;20603;-79
2023/12/02 12:40:36;;;;;;;20.80;14.53;;;;;;;;;;5091058;28;20670;-79
2023/12/02 12:43:04;;;;;;;23.33;16.77;;;;;;;;;;5089411;28;20230;-78
2023/12/02 12:45:33;;;;;;;23.47;15.73;;;;;;;;;;5091885;28;20286;-79
2023/12/02 12:48:01;;;;;;;24.23;16.97;;;;;;;;;;5091805;28;20209;-79
2023/12/02 12:50:30;;;;;;;25.10;16.60;;;;;;;;;;5091668;28;20198;-79
2023/12/02 12:53:00;;;;;;;27.03;17.77;;;;;;;;;;5091710;28;20557;-79
2023/12/02 12:55:28;;;;;;;26.70;17.93;;;;;;;;;;5091545;28;20194;-79
2023/12/02 12:57:58;;;;;;;25.50;18.03;;;;;;;;;;5091566;28;20292;-78
2023/12/02 13:00:29;;;;;;;26.93;18.10;;;;;;;;;;5089283;28;20264;-79
2023/12/02 13:03:11;;;;;;;22.60;15.13;;;;;;;;;;5085007;28;20599;-80
2023/12/02 13:05:42;;;;;;;25.67;17.17;;;;;;;;;;5091593;28;20194;-80
2023/12/02 13:08:11;;;;;;;27.33;18.03;;;;;;;;;;5091578;28;20194;-80
2023/12/02 13:10:41;;;;;;;27.17;18.40;;;;;;;;;;5091757;28;20284;-80
2023/12/02 13:13:10;;;;;;;25.17;17.33;;;;;;;;;;5091548;28;20282;-80
2023/12/02 13:15:40;;;;;;;27.83;17.73;;;;;;;;;;5091923;28;20190;-80
2023/12/02 13:18:08;;;;;;;26.30;18.50;;;;;;;;;;5091863;28;20222;-80
2023/12/02 13:20:35;;;;;;;27.60;18.00;;;;;;;;;;5092017;28;20285;-80
2023/12/02 13:23:04;;;;;;;26.80;18.33;;;;;;;;;;5090961;28;20590;-80
2023/12/02 13:25:34;;;;;;;27.43;17.87;;;;;;;;;;5091364;28;20818;-80
2023/12/02 13:28:06;;;;;;;24.70;17.27;;;;;;;;;;5092132;28;20630;-80
2023/12/02 13:30:36;;;;;;;26.27;17.70;;;;;;;;;;5091442;28;20206;-80
2023/12/02 13:33:08;;;;;;;21.97;15.47;;;;;;;;;;5091268;28;20866;-81
2023/12/02 13:35:39;;;;;;;24.70;16.97;;;;;;;;;;5091306;28;20224;-80
2023/12/02 13:38:11;;;;;;;28.20;18.47;;;;;;;;;;5091292;28;20190;-81
2023/12/02 13:40:39;;;;;;;25.10;16.90;;;;;;;;;;5091593;28;20277;-79
2023/12/02 13:43:10;;;;;;;25.23;17.47;;;;;;;;;;5091233;28;20303;-80
2023/12/02 13:45:38;;;;;;;27.00;18.30;;;;;;;;;;5091403;28;20221;-80
2023/12/02 13:48:12;;;;;;;26.23;17.30;;;;;;;;;;5091599;28;20230;-80
2023/12/02 13:50:43;;;;;;;25.27;17.13;;;;;;;;;;5091215;28;20194;-80
2023/12/02 13:53:19;;;;;;;26.17;17.27;;;;;;;;;;5095130;28;20270;-79
2023/12/02 13:55:53;;;;;;;23.43;15.83;;;;;;;;;;5095438;28;20221;-80
2023/12/02 13:58:21;;;;;;;23.53;15.50;;;;;;;;;;5095219;28;20194;-80
2023/12/02 14:00:50;;;;;;;24.57;16.33;;;;;;;;;;5094948;28;20226;-81
2023/12/02 14:03:28;;;;;;;21.87;15.37;;;;;;;;;;5094917;28;20309;-80
2023/12/02 14:05:56;;;;;;;26.07;17.53;;;;;;;;;;5095024;28;20248;-80
2023/12/02 14:08:26;;;;;;;24.63;16.63;;;;;;;;;;5095191;28;20568;-80
2023/12/02 14:10:54;;;;;;;22.90;16.27;;;;;;;;;;5094982;28;20288;-80
2023/12/02 14:13:23;;;;;;;23.77;15.40;;;;;;;;;;5095037;28;20305;-81
2023/12/02 14:15:54;;;;;;;23.23;14.63;;;;;;;;;;5094837;28;20198;-80
2023/12/02 14:18:36;;;;;;;22.97;14.87;;;;;;;;;;5094776;28;20213;-79
2023/12/02 14:21:10;;;;;;;21.63;14.07;;;;;;;;;;5093982;28;20652;-81
2023/12/02 14:23:55;;;;;;;19.27;13.23;;;;;;;;;;5094311;28;20227;-80
2023/12/02 14:26:28;;;;;;;23.37;15.23;;;;;;;;;;5087566;28;20285;-80